GMMN/CMN METAR and TAF weather

Enter ICAO airport designator
Station Type Date Time Source
GMMN METAR 2020/04/06 08:00 UTC NOAA

GMMN 060800Z 22005KT 9999 BKN026 18/16 Q1021 NOSIG


Station Type Date Time Source
GMMN Decoded METAR 2020/04/06 08:00 UTC NOAA

Nouasseur, Morocco (GMMN) 33-22N 007-35W 206M
Apr 06, 2020 - 04:00 AM EDT / 2020.04.06 0800 UTC
Wind: from the SW (220 degrees) at 6 MPH (5 KT):0
Visibility: greater than 7 mile(s):0
Sky conditions: mostly cloudy
Temperature: 64 F (18 C)
Dew Point: 60 F (16 C)
Relative Humidity: 88%
Pressure (altimeter): 30.15 in. Hg (1021 hPa)
ob: GMMN 060800Z 22005KT 9999 BKN026 18/16 Q1021 NOSIG
cycle: 8

Station Type Date Time Source
GMMN TAF 2020/04/06 06:18 UTC NOAA

TAF GMMN 060500Z 0606/0712 20004KT 9999 BKN015
BECMG 0613/0616 34012KT
BECMG 0621/0701 15004KT PROB30 0703/0707 3000 BR SCT005 BKN015

Example: see airport list